Athens, Georgia
Current Conditions -  °F | °C
As of 6:51 AM on Saturday 01 Nov 2014 (Local Time) from KAHN Reporting Station
Overcast Overcast  
Wind Chill:   Ceiling: 7000
Heat Index:   Visibility: 10mi
Dew Point: -2°   Wind: 12mph
Humidity: 65%   Direction: 300°WNW
Pressure: 29.84"   Gusts: 21mph
Location:  33.96°N, 83.37°W
Report Text: KAHN 011051Z AUTO 30010G18KT 10SM BKN070 OVC100 04/M02 A2984 RMK AO2 RAB0954E08 SLP105 P0000 T00391022
Loading
Personal Weather Stations






























Interactive Weather Map
Tropical Storm Tracking
New forecast layout! Learn more

10-Day Weather Forecast

Advertisements
Track Severe Weather on mobile